createdAt,value
2023-02-07T00:01:23.942Z,104032.38
2023-02-07T00:03:51.433Z,104032.84
2023-02-07T00:06:24.409Z,104025.91
2023-02-07T00:08:51.204Z,104027.47
2023-02-07T00:11:20.242Z,104029.09
2023-02-07T00:13:49.426Z,104027.16
2023-02-07T00:16:16.596Z,104026.28
2023-02-07T00:18:43.274Z,104026.16
2023-02-07T00:21:12.763Z,104033.97
2023-02-07T00:23:39.603Z,104029.72
2023-02-07T00:26:07.952Z,104027.94
2023-02-07T00:28:35.525Z,104030.50
2023-02-07T00:31:20.915Z,104031.28
2023-02-07T00:33:49.831Z,104024.34
2023-02-07T00:36:22.706Z,104021.78
2023-02-07T00:38:49.642Z,104020.00
2023-02-07T00:41:18.669Z,104011.25
2023-02-07T00:43:47.181Z,104016.38
2023-02-07T00:46:15.080Z,104013.06
2023-02-07T00:48:41.711Z,104016.38
2023-02-07T00:51:09.768Z,104006.00
2023-02-07T00:53:36.995Z,104000.59
2023-02-07T00:56:03.872Z,104000.47
2023-02-07T00:58:30.426Z,104003.03
2023-02-07T01:00:57.259Z,104008.16
2023-02-07T01:03:24.672Z,104006.22
2023-02-07T01:05:51.933Z,104007.84
2023-02-07T01:08:18.421Z,104012.97
2023-02-07T01:10:45.536Z,104011.22
2023-02-07T01:13:14.010Z,104013.63
2023-02-07T01:15:43.021Z,104005.78
2023-02-07T01:18:10.226Z,104005.78
2023-02-07T01:20:37.029Z,104010.03
2023-02-07T01:23:05.652Z,104006.56
2023-02-07T01:25:32.655Z,103995.25
2023-02-07T01:27:59.296Z,104002.81
2023-02-07T01:30:25.779Z,104001.00
2023-02-07T01:32:52.390Z,103999.09
2023-02-07T01:35:19.043Z,103995.63
2023-02-07T01:37:45.567Z,103995.47
2023-02-07T01:40:12.991Z,103996.09
2023-02-07T01:42:39.904Z,103997.78
2023-02-07T01:45:25.497Z,103995.84
2023-02-07T01:47:54.428Z,104006.69
2023-02-07T01:50:22.584Z,104001.56
2023-02-07T01:52:50.120Z,104006.69
2023-02-07T01:55:28.089Z,104009.13
2023-02-07T01:57:55.046Z,104001.19
2023-02-07T02:00:22.033Z,104004.63
2023-02-07T02:02:48.800Z,104008.72
2023-02-07T02:05:18.726Z,104002.69
2023-02-07T02:07:46.677Z,104005.25
2023-02-07T02:10:19.794Z,104006.03
2023-02-07T02:12:49.335Z,104002.41
2023-02-07T02:15:46.832Z,104000.78
2023-02-07T02:18:28.510Z,104003.16
2023-02-07T02:21:04.458Z,103993.97
2023-02-07T02:24:10.064Z,103993.84
2023-02-07T02:26:59.457Z,103993.56
2023-02-07T02:29:32.000Z,103990.84
2023-02-07T02:32:35.797Z,103981.38
2023-02-07T02:35:18.544Z,103984.69
2023-02-07T02:38:10.187Z,103990.44
2023-02-07T02:40:49.244Z,103984.28
2023-02-07T02:43:34.306Z,103983.38
2023-02-07T02:46:25.067Z,103979.78
2023-02-07T02:48:53.898Z,103976.16
2023-02-07T02:51:20.797Z,103979.19
2023-02-07T02:53:59.012Z,103970.38
2023-02-07T02:56:49.525Z,103964.31
2023-02-07T02:59:28.243Z,103954.09
2023-02-07T03:01:58.740Z,103952.44
2023-02-07T03:05:02.764Z,103944.75
2023-02-07T03:07:50.579Z,103953.19
2023-02-07T03:10:23.064Z,103951.38
2023-02-07T03:13:11.219Z,103947.06
2023-02-07T03:15:43.892Z,103952.31
2023-02-07T03:18:40.326Z,103945.38
2023-02-07T03:21:25.435Z,103946.00
2023-02-07T03:23:55.017Z,103941.50
2023-02-07T03:26:24.601Z,103939.72
2023-02-07T03:28:55.052Z,103945.59
2023-02-07T03:31:24.145Z,103936.22
2023-02-07T03:33:55.962Z,103943.91
2023-02-07T03:36:30.260Z,103939.72
2023-02-07T03:38:57.082Z,103936.84
2023-02-07T03:41:44.582Z,103946.19
2023-02-07T03:44:14.841Z,103940.94
2023-02-07T03:46:42.021Z,103936.44
2023-02-07T03:49:08.810Z,103945.66
2023-02-07T03:51:36.374Z,103957.53
2023-02-07T03:54:03.910Z,103947.16
2023-02-07T03:56:30.448Z,103940.22
2023-02-07T03:58:57.271Z,103941.16
2023-02-07T04:01:23.921Z,103941.78
2023-02-07T04:03:50.428Z,103945.06
2023-02-07T04:06:17.125Z,103946.47
2023-02-07T04:08:43.734Z,103941.06
2023-02-07T04:11:10.861Z,103939.41
2023-02-07T04:13:37.587Z,103943.59
2023-02-07T04:16:05.566Z,103943.59
2023-02-07T04:18:32.573Z,103947.84
2023-02-07T04:21:03.279Z,103950.13
2023-02-07T04:23:30.133Z,103954.19
2023-02-07T04:25:57.037Z,103948.94
2023-02-07T04:28:23.885Z,103945.47
2023-02-07T04:30:50.497Z,103952.22
2023-02-07T04:33:17.217Z,103951.97
2023-02-07T04:35:43.806Z,103943.25
2023-02-07T04:38:10.426Z,103949.13
2023-02-07T04:40:38.912Z,103943.13
2023-02-07T04:43:05.407Z,103946.44
2023-02-07T04:45:31.949Z,103948.72
2023-02-07T04:47:58.740Z,103953.69
2023-02-07T04:50:25.292Z,103951.75
2023-02-07T04:52:52.220Z,103958.63
2023-02-07T04:55:18.892Z,103946.75
2023-02-07T04:57:45.385Z,103951.88
2023-02-07T05:00:12.584Z,103958.50
2023-02-07T05:02:40.252Z,103952.34
2023-02-07T05:05:07.382Z,103958.22
2023-02-07T05:07:36.241Z,103956.25
2023-02-07T05:10:04.874Z,103957.03
2023-02-07T05:12:31.440Z,103949.38
2023-02-07T05:14:59.274Z,103949.09
2023-02-07T05:17:26.231Z,103961.00
2023-02-07T05:19:52.819Z,103964.31
2023-02-07T05:22:19.592Z,103971.22
2023-02-07T05:24:46.110Z,103967.59
2023-02-07T05:27:12.827Z,103965.97
2023-02-07T05:29:39.636Z,103969.41
2023-02-07T05:32:24.801Z,103974.53
2023-02-07T05:34:51.329Z,103982.06
2023-02-07T05:37:17.863Z,103975.91
2023-02-07T05:39:44.478Z,103974.13
2023-02-07T05:42:10.997Z,103971.41
2023-02-07T05:44:37.524Z,103974.72
2023-02-07T05:47:04.170Z,103973.50
2023-02-07T05:49:31.310Z,103977.75
2023-02-07T05:51:57.855Z,103969.19
2023-02-07T05:54:24.697Z,103971.75
2023-02-07T05:56:51.264Z,103969.31
2023-02-07T05:59:17.937Z,103973.84
2023-02-07T06:01:44.723Z,103984.81
2023-02-07T06:04:11.319Z,103984.66
2023-02-07T06:06:37.810Z,103978.50
2023-02-07T06:09:04.951Z,103977.59
2023-02-07T06:11:31.590Z,103976.72
2023-02-07T06:13:58.148Z,103981.66
2023-02-07T06:16:25.000Z,103989.97
2023-02-07T06:18:51.813Z,103994.00
2023-02-07T06:21:19.678Z,103995.69
2023-02-07T06:23:48.443Z,103997.19
2023-02-07T06:26:15.957Z,104004.09
2023-02-07T06:28:43.044Z,103999.72
2023-02-07T06:31:10.436Z,104004.09
2023-02-07T06:33:37.249Z,104003.97
2023-02-07T06:36:04.404Z,104000.50
2023-02-07T06:38:31.018Z,104013.28
2023-02-07T06:40:57.530Z,104008.94
2023-02-07T06:43:24.051Z,104012.69
2023-02-07T06:45:50.618Z,104020.22
2023-02-07T06:48:17.217Z,104025.94
2023-02-07T06:50:43.783Z,104029.22
2023-02-07T06:53:10.364Z,104037.69
2023-02-07T06:55:40.616Z,104027.47
2023-02-07T06:58:07.839Z,104035.13
2023-02-07T07:00:34.487Z,104039.31
2023-02-07T07:03:01.218Z,104040.97
2023-02-07T07:05:29.534Z,104037.53
2023-02-07T07:07:57.105Z,104047.13
2023-02-07T07:10:23.746Z,104038.72
2023-02-07T07:12:51.188Z,104041.41
2023-02-07T07:15:17.795Z,104038.84
2023-02-07T07:17:47.010Z,104036.91
2023-02-07T07:20:16.718Z,104034.19
2023-02-07T07:22:46.190Z,104040.09
2023-02-07T07:25:15.294Z,104036.63
2023-02-07T07:27:41.766Z,104034.06
2023-02-07T07:30:10.569Z,104038.56
2023-02-07T07:32:37.895Z,104031.78
2023-02-07T07:35:04.794Z,104036.16
2023-02-07T07:37:31.958Z,104028.63
2023-02-07T07:39:58.739Z,104028.78
2023-02-07T07:42:25.443Z,104036.63
2023-02-07T07:45:05.038Z,104036.75
2023-02-07T07:47:31.624Z,104026.69
2023-02-07T07:49:58.304Z,104022.88
2023-02-07T07:52:26.126Z,104017.03
2023-02-07T07:54:54.769Z,104019.88
2023-02-07T07:57:21.496Z,104027.06
2023-02-07T07:59:48.116Z,104013.69
2023-02-07T08:02:15.118Z,104011.41
2023-02-07T08:04:41.638Z,104010.81
2023-02-07T08:07:08.124Z,104001.63
2023-02-07T08:09:35.027Z,104009.59
2023-02-07T08:12:01.583Z,103998.88
2023-02-07T08:14:28.226Z,103992.34
2023-02-07T08:16:54.882Z,103999.56
2023-02-07T08:19:21.628Z,104001.66
2023-02-07T08:21:48.223Z,104008.84
2023-02-07T08:24:15.401Z,103997.41
2023-02-07T08:26:41.885Z,103997.81
2023-02-07T08:29:08.465Z,103993.28
2023-02-07T08:31:35.159Z,103997.31
2023-02-07T08:34:01.780Z,103982.53
2023-02-07T08:36:28.373Z,103981.28
2023-02-07T08:38:54.960Z,103985.28
2023-02-07T08:41:21.454Z,103986.63
2023-02-07T08:43:47.977Z,103988.84
2023-02-07T08:46:14.896Z,103993.00
2023-02-07T08:48:41.537Z,103990.22
2023-02-07T08:51:09.629Z,103980.81
2023-02-07T08:53:36.438Z,103984.34
2023-02-07T08:56:03.209Z,103985.03
2023-02-07T08:58:30.083Z,103991.84
2023-02-07T09:00:56.792Z,103999.75
2023-02-07T09:03:23.525Z,103991.22
2023-02-07T09:05:50.634Z,104003.31
2023-02-07T09:08:18.969Z,104000.78
2023-02-07T09:10:47.995Z,103998.41
2023-02-07T09:13:14.925Z,104005.09
2023-02-07T09:15:42.963Z,103995.59
2023-02-07T09:18:10.036Z,103998.34
2023-02-07T09:20:38.765Z,103996.69
2023-02-07T09:23:18.649Z,104000.78
2023-02-07T09:25:50.891Z,104002.47
2023-02-07T09:28:18.854Z,104010.06
2023-02-07T09:30:47.698Z,103998.78
2023-02-07T09:33:15.422Z,103999.41
2023-02-07T09:35:46.680Z,104003.38
2023-02-07T09:38:16.782Z,104003.00
2023-02-07T09:40:44.982Z,103991.56
2023-02-07T09:43:17.552Z,103992.31
2023-02-07T09:45:48.286Z,103997.56
2023-02-07T09:48:21.993Z,103998.97
2023-02-07T09:50:56.302Z,103991.09
2023-02-07T09:53:28.146Z,104002.16
2023-02-07T09:56:00.523Z,104007.00
2023-02-07T09:58:35.493Z,104019.56
2023-02-07T10:01:11.265Z,104020.06
2023-02-07T10:03:46.293Z,104021.56
2023-02-07T10:06:22.358Z,104018.88
2023-02-07T10:08:54.235Z,104017.66
2023-02-07T10:11:39.224Z,104014.81
2023-02-07T10:14:24.529Z,104005.53
2023-02-07T10:17:31.818Z,104012.06
2023-02-07T10:20:28.783Z,104001.56
2023-02-07T10:23:32.989Z,104002.97
2023-02-07T10:26:37.761Z,104003.69
2023-02-07T10:29:33.974Z,103994.38
2023-02-07T10:32:03.680Z,103992.97
2023-02-07T10:34:41.688Z,103996.09
2023-02-07T10:37:19.256Z,103993.75
2023-02-07T10:39:52.401Z,103989.75
2023-02-07T10:42:20.234Z,103981.38
2023-02-07T10:44:47.771Z,103990.22
2023-02-07T10:47:18.514Z,103982.75
2023-02-07T10:49:49.589Z,103988.88
2023-02-07T10:52:28.750Z,103991.81
2023-02-07T10:55:00.960Z,103988.81
2023-02-07T10:57:29.940Z,103985.56
2023-02-07T10:59:59.400Z,103986.69
2023-02-07T11:02:28.791Z,103980.78
2023-02-07T11:04:57.062Z,103987.84
2023-02-07T11:07:25.992Z,103989.72
2023-02-07T11:10:20.285Z,103978.75
2023-02-07T11:12:55.480Z,103985.94
2023-02-07T11:15:27.208Z,103986.16
2023-02-07T11:17:56.897Z,103986.53
2023-02-07T11:20:41.753Z,103980.81
2023-02-07T11:23:14.076Z,103974.19
2023-02-07T11:25:47.138Z,103972.84
2023-02-07T11:28:28.622Z,103965.34
2023-02-07T11:30:58.747Z,103961.22
2023-02-07T11:33:29.728Z,103958.84
2023-02-07T11:36:22.094Z,103952.22
2023-02-07T11:38:56.607Z,103943.91
2023-02-07T11:41:33.744Z,103948.41
2023-02-07T11:44:02.992Z,103940.88
2023-02-07T11:46:39.411Z,103938.56
2023-02-07T11:49:18.784Z,103936.19
2023-02-07T11:51:45.904Z,103944.13
2023-02-07T11:54:14.364Z,103948.63
2023-02-07T11:56:45.350Z,103942.78
2023-02-07T11:59:19.508Z,103944.69
2023-02-07T12:01:55.576Z,103942.03
2023-02-07T12:04:33.750Z,103945.59
2023-02-07T12:07:06.426Z,103937.97
2023-02-07T12:09:43.513Z,103928.66
2023-02-07T12:12:19.205Z,103925.28
2023-02-07T12:14:53.698Z,103931.56
2023-02-07T12:17:31.695Z,103924.81
2023-02-07T12:20:05.357Z,103930.22
2023-02-07T12:22:44.284Z,103927.16
2023-02-07T12:25:41.482Z,103922.22
2023-02-07T12:28:28.466Z,103920.50
2023-02-07T12:31:02.180Z,103920.63
2023-02-07T12:33:38.165Z,103925.00
2023-02-07T12:36:19.852Z,103921.66
2023-02-07T12:38:54.567Z,103922.72
2023-02-07T12:41:31.524Z,103927.22
2023-02-07T12:44:30.339Z,103930.00
2023-02-07T12:47:29.586Z,103931.03
2023-02-07T12:50:17.216Z,103935.41
2023-02-07T12:53:05.674Z,103939.91
2023-02-07T12:55:47.385Z,103940.69
2023-02-07T12:58:51.961Z,103938.09
2023-02-07T13:01:33.016Z,103943.38
2023-02-07T13:04:17.777Z,103939.09
2023-02-07T13:06:56.691Z,103944.34
2023-02-07T13:09:42.104Z,103935.81
2023-02-07T13:12:12.847Z,103947.94
2023-02-07T13:15:19.958Z,103942.91
2023-02-07T13:18:33.531Z,103935.25
2023-02-07T13:21:11.484Z,103940.53
2023-02-07T13:23:43.692Z,103942.31
2023-02-07T13:26:22.088Z,103941.44
2023-02-07T13:28:58.737Z,103933.69
2023-02-07T13:31:51.457Z,103930.41
2023-02-07T13:34:28.956Z,103924.34
2023-02-07T13:36:58.898Z,103930.41
2023-02-07T13:40:03.049Z,103934.78
2023-02-07T13:42:51.493Z,103928.72
2023-02-07T13:45:29.591Z,103930.41
2023-02-07T13:48:17.293Z,103930.41
2023-02-07T13:50:44.129Z,103921.78
2023-02-07T13:53:28.935Z,103914.91
2023-02-07T13:56:03.366Z,103911.44
2023-02-07T13:59:12.716Z,103906.28
2023-02-07T14:01:48.308Z,103911.34
2023-02-07T14:04:15.116Z,103910.56
2023-02-07T14:06:57.825Z,103908.84
2023-02-07T14:09:39.471Z,103908.84
2023-02-07T14:12:20.904Z,103913.13
2023-02-07T14:15:01.501Z,103910.44
2023-02-07T14:17:29.003Z,103911.22
2023-02-07T14:19:59.936Z,103910.22
2023-02-07T14:22:52.689Z,103897.22
2023-02-07T14:25:37.854Z,103904.94
2023-02-07T14:28:04.987Z,103903.97
2023-02-07T14:30:56.126Z,103902.25
2023-02-07T14:33:29.552Z,103899.59
2023-02-07T14:36:14.856Z,103907.22
2023-02-07T14:39:22.685Z,103902.75
2023-02-07T14:41:51.877Z,103907.69
2023-02-07T14:44:28.966Z,103902.44
2023-02-07T14:46:58.027Z,103897.06
2023-02-07T14:49:36.831Z,103908.06
2023-02-07T14:52:08.286Z,103903.56
2023-02-07T14:54:37.663Z,103906.72
2023-02-07T14:57:10.379Z,103900.53
2023-02-07T14:59:59.158Z,103896.88
2023-02-07T15:02:29.026Z,103897.56
2023-02-07T15:04:56.446Z,103905.97
2023-02-07T15:07:23.692Z,103902.16
2023-02-07T15:09:50.311Z,103900.28
2023-02-07T15:12:27.314Z,103900.16
2023-02-07T15:14:57.197Z,103905.09
2023-02-07T15:17:33.469Z,103902.31
2023-02-07T15:20:06.576Z,103905.56
2023-02-07T15:22:33.312Z,103909.72
2023-02-07T15:25:01.156Z,103904.22
2023-02-07T15:27:29.838Z,103904.00
2023-02-07T15:30:06.594Z,103896.94
2023-02-07T15:32:35.366Z,103897.59
2023-02-07T15:35:17.636Z,103902.66
2023-02-07T15:37:47.232Z,103899.75
2023-02-07T15:40:19.862Z,103895.16
2023-02-07T15:42:54.648Z,103895.63
2023-02-07T15:45:26.801Z,103899.63
2023-02-07T15:47:59.597Z,103889.00
2023-02-07T15:50:29.583Z,103886.09
2023-02-07T15:52:58.823Z,103892.69
2023-02-07T15:55:35.070Z,103887.22
2023-02-07T15:58:05.790Z,103888.56
2023-02-07T16:00:40.472Z,103883.97
2023-02-07T16:03:18.561Z,103888.91
2023-02-07T16:05:45.326Z,103888.69
2023-02-07T16:08:32.421Z,103884.06
2023-02-07T16:11:36.342Z,103888.09
2023-02-07T16:14:02.953Z,103889.44
2023-02-07T16:16:36.724Z,103890.88
2023-02-07T16:19:20.266Z,103895.72
2023-02-07T16:21:52.212Z,103889.09
2023-02-07T16:24:24.419Z,103885.38
2023-02-07T16:26:51.271Z,103888.50
2023-02-07T16:29:23.859Z,103897.56
2023-02-07T16:31:51.846Z,103888.59
2023-02-07T16:34:20.028Z,103894.19
2023-02-07T16:36:52.148Z,103898.84
2023-02-07T16:39:19.466Z,103895.16
2023-02-07T16:41:48.980Z,103897.50
2023-02-07T16:44:20.531Z,103903.97
2023-02-07T16:46:47.749Z,103903.84
2023-02-07T16:49:16.357Z,103906.84
2023-02-07T16:51:44.594Z,103909.97
2023-02-07T16:54:11.976Z,103913.84
2023-02-07T16:56:39.642Z,103901.41
2023-02-07T16:59:08.120Z,103898.47
2023-02-07T17:01:34.890Z,103906.84
2023-02-07T17:04:01.433Z,103906.50
2023-02-07T17:06:29.726Z,103905.34
2023-02-07T17:08:56.458Z,103911.13
2023-02-07T17:11:25.239Z,103908.44
2023-02-07T17:13:56.297Z,103906.41
2023-02-07T17:16:24.305Z,103906.28
2023-02-07T17:18:51.343Z,103907.06
2023-02-07T17:21:18.208Z,103907.72
2023-02-07T17:23:49.247Z,103913.53
2023-02-07T17:26:24.788Z,103911.63
2023-02-07T17:28:52.638Z,103905.31
2023-02-07T17:31:19.669Z,103907.66
2023-02-07T17:33:47.004Z,103902.41
2023-02-07T17:36:15.353Z,103898.66
2023-02-07T17:38:43.055Z,103894.28
2023-02-07T17:41:14.642Z,103893.19
2023-02-07T17:43:41.612Z,103893.69
2023-02-07T17:46:17.451Z,103897.81
2023-02-07T17:48:47.428Z,103899.25
2023-02-07T17:51:18.679Z,103899.78
2023-02-07T17:53:46.261Z,103902.22
2023-02-07T17:56:33.474Z,103908.91
2023-02-07T17:59:02.838Z,103902.00
2023-02-07T18:01:33.376Z,103902.50
2023-02-07T18:04:00.182Z,103900.72
2023-02-07T18:06:29.491Z,103904.56
2023-02-07T18:08:58.583Z,103894.94
2023-02-07T18:11:26.801Z,103905.84
2023-02-07T18:13:53.777Z,103898.81
2023-02-07T18:16:23.991Z,103901.28
2023-02-07T18:18:52.601Z,103896.78
2023-02-07T18:21:19.452Z,103896.66
2023-02-07T18:23:46.327Z,103897.41
2023-02-07T18:26:19.398Z,103895.63
2023-02-07T18:28:46.619Z,103898.94
2023-02-07T18:31:19.269Z,103898.72
2023-02-07T18:33:46.643Z,103902.03
2023-02-07T18:36:13.866Z,103902.72
2023-02-07T18:38:40.661Z,103902.56
2023-02-07T18:41:16.195Z,103909.50
2023-02-07T18:43:43.156Z,103908.38
2023-02-07T18:46:12.154Z,103899.75
2023-02-07T18:48:39.073Z,103905.53
2023-02-07T18:51:10.524Z,103907.09
2023-02-07T18:53:37.673Z,103916.31
2023-02-07T18:56:08.520Z,103916.19
2023-02-07T18:58:35.114Z,103917.75
2023-02-07T19:01:10.280Z,103922.13
2023-02-07T19:03:38.601Z,103928.78
2023-02-07T19:06:07.245Z,103918.38
2023-02-07T19:08:34.846Z,103925.84
2023-02-07T19:11:05.091Z,103924.81
2023-02-07T19:13:33.468Z,103916.09
2023-02-07T19:16:07.742Z,103914.16
2023-02-07T19:18:34.964Z,103907.09
2023-02-07T19:21:13.304Z,103895.03
2023-02-07T19:23:40.970Z,103901.59
2023-02-07T19:26:08.445Z,103906.47
2023-02-07T19:28:36.663Z,103903.50
2023-02-07T19:31:04.942Z,103899.91
2023-02-07T19:33:31.778Z,103906.56
2023-02-07T19:36:07.336Z,103896.19
2023-02-07T19:38:34.582Z,103907.22
2023-02-07T19:41:02.236Z,103903.75
2023-02-07T19:43:28.897Z,103901.97
2023-02-07T19:45:55.612Z,103911.09
2023-02-07T19:48:22.910Z,103914.53
2023-02-07T19:51:00.618Z,103908.28
2023-02-07T19:53:28.782Z,103913.25
2023-02-07T19:56:02.527Z,103913.78
2023-02-07T19:58:31.451Z,103908.50
2023-02-07T20:01:01.180Z,103904.91
2023-02-07T20:03:28.984Z,103910.03
2023-02-07T20:06:00.012Z,103909.16
2023-02-07T20:08:27.070Z,103911.84
2023-02-07T20:10:53.789Z,103902.22
2023-02-07T20:13:20.871Z,103900.28
2023-02-07T20:15:47.575Z,103901.97
2023-02-07T20:18:14.564Z,103899.41
2023-02-07T20:20:44.163Z,103901.97
2023-02-07T20:23:11.715Z,103902.72
2023-02-07T20:25:39.711Z,103903.38
2023-02-07T20:28:08.020Z,103911.69
2023-02-07T20:30:36.304Z,103903.75
2023-02-07T20:33:03.140Z,103906.19
2023-02-07T20:35:29.840Z,103897.44
2023-02-07T20:37:56.703Z,103892.19
2023-02-07T20:40:23.436Z,103890.13
2023-02-07T20:42:50.027Z,103890.91
2023-02-07T20:45:16.799Z,103893.19
2023-02-07T20:47:43.786Z,103894.75
2023-02-07T20:50:10.455Z,103897.94
2023-02-07T20:52:37.615Z,103890.88
2023-02-07T20:55:05.794Z,103902.03
2023-02-07T20:57:32.598Z,103896.91
2023-02-07T20:59:59.406Z,103899.47
2023-02-07T21:02:26.088Z,103904.59
2023-02-07T21:04:52.762Z,103900.13
2023-02-07T21:07:19.426Z,103906.63
2023-02-07T21:09:46.248Z,103897.91
2023-02-07T21:12:13.086Z,103903.81
2023-02-07T21:14:40.925Z,103907.00
2023-02-07T21:17:07.511Z,103906.88
2023-02-07T21:19:35.614Z,103906.47
2023-02-07T21:22:02.393Z,103910.44
2023-02-07T21:24:31.305Z,103909.41
2023-02-07T21:26:58.092Z,103909.41
2023-02-07T21:29:26.929Z,103919.50
2023-02-07T21:31:53.726Z,103916.94
2023-02-07T21:34:23.848Z,103921.19
2023-02-07T21:36:50.615Z,103910.78
2023-02-07T21:39:17.900Z,103915.78
2023-02-07T21:41:46.141Z,103912.19
2023-02-07T21:44:14.168Z,103906.03
2023-02-07T21:46:42.899Z,103912.84
2023-02-07T21:49:14.631Z,103901.53
2023-02-07T21:51:42.800Z,103903.22
2023-02-07T21:54:09.571Z,103899.59
2023-02-07T21:56:38.534Z,103900.22
2023-02-07T21:59:08.111Z,103896.50
2023-02-07T22:01:36.562Z,103903.03
2023-02-07T22:04:05.220Z,103901.09
2023-02-07T22:06:32.540Z,103891.63
2023-02-07T22:09:01.175Z,103900.94
2023-02-07T22:11:30.781Z,103900.06
2023-02-07T22:13:58.189Z,103894.81
2023-02-07T22:16:26.062Z,103893.75
2023-02-07T22:18:53.708Z,103903.00
2023-02-07T22:21:23.547Z,103895.91
2023-02-07T22:23:50.775Z,103905.28
2023-02-07T22:26:20.659Z,103904.97
2023-02-07T22:28:48.049Z,103912.66
2023-02-07T22:31:17.588Z,103904.09
2023-02-07T22:33:44.369Z,103902.28
2023-02-07T22:36:14.971Z,103908.19
2023-02-07T22:38:42.207Z,103908.03
2023-02-07T22:41:09.585Z,103901.91
2023-02-07T22:43:37.127Z,103904.47
2023-02-07T22:46:05.842Z,103912.00
2023-02-07T22:48:33.656Z,103910.06
2023-02-07T22:51:20.262Z,103906.63
2023-02-07T22:53:47.012Z,103903.94
2023-02-07T22:56:13.533Z,103896.06
2023-02-07T22:58:40.678Z,103897.75
2023-02-07T23:01:07.574Z,103894.16
2023-02-07T23:03:34.749Z,103888.75
2023-02-07T23:06:05.609Z,103897.22
2023-02-07T23:08:32.296Z,103900.41
2023-02-07T23:11:01.153Z,103902.81
2023-02-07T23:13:27.813Z,103902.19
2023-02-07T23:15:54.483Z,103906.41
2023-02-07T23:18:21.162Z,103902.03
2023-02-07T23:20:47.862Z,103908.09
2023-02-07T23:23:14.611Z,103908.09
2023-02-07T23:25:43.186Z,103914.84
2023-02-07T23:28:09.962Z,103911.25
2023-02-07T23:30:37.963Z,103913.69
2023-02-07T23:33:06.196Z,103918.66
2023-02-07T23:35:33.473Z,103908.00
2023-02-07T23:38:01.460Z,103909.66
2023-02-07T23:40:31.501Z,103910.16
2023-02-07T23:42:58.100Z,103917.69
2023-02-07T23:45:25.538Z,103915.13
2023-02-07T23:47:52.105Z,103919.38
2023-02-07T23:50:20.761Z,103921.00
2023-02-07T23:52:47.290Z,103919.06
2023-02-07T23:55:13.893Z,103916.38
2023-02-07T23:57:40.813Z,103922.28
